Contact Us:
Email: info@sawbill.com
Phone: (218)663-7150
Fax: (218)663-7980
Mail: 4620 Sawbill Trail
Box 2129
Tofte, MN 55615


Powered by
Movable Type 3.15
 
Sawbill Weather History Archives: July 2006
Current Sawbill Weather History | « June 2006 | August 2006 »


Date

High
Temperature

Low
Temperature

Barometric
Pressure

Relative
Humidity 7AM

9 AM
Temperature

Moisture

Snow

7/31/06 88 65 29.84 88% 66 1.15"
7/30/06 70 63 29.74 89% 65 .34"
7/29/06 84 57 29.85 87% 63 0
7/28/06 89 62 30.00 74% 63 0
7/27/06 85 61 29.87 84% 67 0
7/26/06 85 59 29.86 87% 63 0
7/25/06 85 62 29.73 85% 64 .32"
7/24/06 86 58 29.83 86% 62 0
7/23/06 66 58 29.75 91% 60 .6"
7/22/06 80 54 30.00 84% 58 0
7/21/06 83 55 30.11 80% 62 0
7/20/06 77 54 30.20 79% 55 0
7/19/06 82 59 30.05 77% 62 0
7/18/06 84 57 30.02 76% 65 0
7/17/06 83 55 30.16 82% 60 0
7/16/06 93 63 29.78 90% 71 .39"
7/15/06 97 67 29.93 69% 71 0
7/14/06 87 64 29.99 74% 68 0
7/13/06 90 66 29.88 86% 67 .58"
7/12/06 89 64 30.02 81% 70 0
7/11/06 82 49 30.07 82% 64 0
7/10/06 74 47 30.02 79% 49 0
7/9/06 74 46 30.07 80% 47 0
7/8/06 87 59 29.94 85% 60 .27"
7/7/06 86 62 29.94 88% 63 .56"
7/6/06 85 58 30.22 63% 66 0
7/5/06 82 55 30.28 72% 60 0
7/4/06 74 52 30.19 64% 59 0
7/3/06 81 55 30.13 63% 55 0
7/2/06 84 60 29.96 84% 61 0
7/1/06 84 45 29.93 73% 64 0
 


Home I Trip Planning I Rentals and Outfitting I Reservations I Campgrounds I Sawbill Store I Sawbill News I Contact

© 1997 - 2017, Sawbill Canoe Outfitters, Inc. I Privacy Policy